SIA317 EGLL-WSSS
Flight info
| Callsign | SIA317 |
|---|---|
| Flight time | N/A |
| Altitude | 33000 |
| Route | DET L6 DVR L9 KONAN UL607 FERDI DCT MATUG DCT GUBAX DCT KOMIB/N0486F350 L984 SULUS Z650 VEMUT DCT DITIS DCT ERGOM DCT BUDOP DCT UDROS UM859 KARDE UL851 TBN UR317 REBLO M11 MATAL/N0492F370 M11 LUSAL N199 BAKUV N701 LARGI B701 KRS A240 INRAK B449 DOLOS B475 RUBAD A846 RANAH L750 ZB G202 RK P628 IBANI L510 GURVI/N0496F390 L510 GIVAL P628 VPL Y503 RINBA Y507 MAKNA Y511 TOPOR A464 ARAMA DCT TEBUN TEBUN1A |
| Aircraft | A388/J-SADE2E3FGHIJ3J4J5M1RWXY/LB1D1 |
Departure
| Time | 2026-05-04 14:23 |
|---|---|
| Airport | London Heathrow Airport (EGLL) |
Arrival
| Time | N/A |
|---|---|
| Airport | Singapore Changi Airport (WSSS) |
| Time | Latitude | Longitude | Altitude | Speed | Heading |
|---|---|---|---|---|---|
| 2026-05-04 14:03 | 51.46864 | -0.44412 | 96 ft | 0 kts | 90° |
| 2026-05-04 14:10 | 51.46864 | -0.44418 | 92 ft | 3 kts | 90° |
| 2026-05-04 14:10 | 51.46866 | -0.44460 | 92 ft | 4 kts | 102° |
| 2026-05-04 14:10 | 51.46874 | -0.44501 | 92 ft | 4 kts | 119° |
| 2026-05-04 14:10 | 51.46890 | -0.44535 | 91 ft | 4 kts | 141° |
| 2026-05-04 14:11 | 51.46912 | -0.44556 | 93 ft | 4 kts | 162° |
| 2026-05-04 14:11 | 51.46966 | -0.44563 | 93 ft | 4 kts | 185° |
| 2026-05-04 14:11 | 51.46985 | -0.44561 | 92 ft | 0 kts | 180° |
| 2026-05-04 14:14 | 51.46982 | -0.44561 | 92 ft | 2 kts | 180° |
| 2026-05-04 14:14 | 51.46880 | -0.44560 | 93 ft | 12 kts | 180° |
| 2026-05-04 14:14 | 51.46782 | -0.44551 | 92 ft | 14 kts | 153° |
| 2026-05-04 14:15 | 51.46755 | -0.44210 | 94 ft | 19 kts | 89° |
| 2026-05-04 14:15 | 51.46835 | -0.44058 | 94 ft | 13 kts | 0° |
| 2026-05-04 14:16 | 51.47104 | -0.44059 | 94 ft | 25 kts | 359° |
| 2026-05-04 14:16 | 51.47279 | -0.44061 | 95 ft | 24 kts | 359° |
| 2026-05-04 14:17 | 51.47480 | -0.44049 | 96 ft | 8 kts | 37° |
| 2026-05-04 14:17 | 51.47505 | -0.43949 | 95 ft | 13 kts | 88° |
| 2026-05-04 14:17 | 51.47497 | -0.43800 | 94 ft | 0 kts | 123° |
| 2026-05-04 14:18 | 51.47466 | -0.43730 | 95 ft | 10 kts | 116° |
| 2026-05-04 14:19 | 51.47490 | -0.43297 | 96 ft | 14 kts | 44° |
| 2026-05-04 14:19 | 51.47584 | -0.43259 | 92 ft | 15 kts | 1° |
| 2026-05-04 14:19 | 51.47614 | -0.43259 | 93 ft | 9 kts | 352° |
| 2026-05-04 14:19 | 51.47666 | -0.43290 | 95 ft | 0 kts | 326° |
| 2026-05-04 14:20 | 51.47669 | -0.43294 | 97 ft | 0 kts | 322° |
| 2026-05-04 14:20 | 51.47675 | -0.43302 | 97 ft | 3 kts | 321° |
| 2026-05-04 14:20 | 51.47724 | -0.43365 | 98 ft | 13 kts | 316° |
| 2026-05-04 14:21 | 51.47767 | -0.43542 | 95 ft | 0 kts | 269° |
| 2026-05-04 14:21 | 51.47767 | -0.43567 | 95 ft | 12 kts | 269° |
| 2026-05-04 14:22 | 51.47766 | -0.43900 | 92 ft | 62 kts | 270° |
| 2026-05-04 14:22 | 51.47766 | -0.44984 | 97 ft | 130 kts | 270° |
| 2026-05-04 14:22 | 51.47756 | -0.46699 | 96 ft | 173 kts | 269° |
| 2026-05-04 14:22 | 51.47755 | -0.48663 | 465 ft | 173 kts | 262° |
| 2026-05-04 14:23 | 51.47662 | -0.52692 | 1416 ft | 195 kts | 259° |
| 2026-05-04 14:23 | 51.47147 | -0.54728 | 1935 ft | 208 kts | 226° |
| 2026-05-04 14:23 | 51.46015 | -0.56234 | 2548 ft | 213 kts | 202° |
| 2026-05-04 14:24 | 51.44562 | -0.56770 | 3232 ft | 223 kts | 175° |
| 2026-05-04 14:24 | 51.43047 | -0.56006 | 3692 ft | 239 kts | 146° |
| 2026-05-04 14:24 | 51.41744 | -0.54195 | 4172 ft | 258 kts | 133° |
| 2026-05-04 14:24 | 51.40526 | -0.51975 | 4701 ft | 270 kts | 130° |
| 2026-05-04 14:25 | 51.39304 | -0.49679 | 5463 ft | 273 kts | 131° |
| 2026-05-04 14:25 | 51.36622 | -0.44921 | 6211 ft | 307 kts | 134° |
| 2026-05-04 14:25 | 51.35132 | -0.42387 | 6673 ft | 315 kts | 134° |
| 2026-05-04 14:26 | 51.33613 | -0.39827 | 7291 ft | 318 kts | 135° |
| 2026-05-04 14:26 | 51.32088 | -0.37254 | 7899 ft | 321 kts | 132° |
| 2026-05-04 14:26 | 51.30941 | -0.34164 | 8564 ft | 327 kts | 109° |
| 2026-05-04 14:26 | 51.30613 | -0.30613 | 9199 ft | 332 kts | 88° |
| 2026-05-04 14:27 | 51.30947 | -0.26938 | 9787 ft | 336 kts | 80° |
| 2026-05-04 14:27 | 51.31341 | -0.23238 | 10370 ft | 339 kts | 83° |
| 2026-05-04 14:27 | 51.31573 | -0.19472 | 10942 ft | 341 kts | 87° |
| 2026-05-04 14:27 | 51.31652 | -0.15668 | 11502 ft | 344 kts | 90° |
| 2026-05-04 14:28 | 51.31642 | -0.11814 | 12085 ft | 347 kts | 92° |
| 2026-05-04 14:28 | 51.31591 | -0.07936 | 12685 ft | 350 kts | 92° |
| 2026-05-04 14:28 | 51.31528 | -0.04028 | 13296 ft | 354 kts | 92° |